Airfield :
LOGIN :

Register | Disclaimer

   EN    FR    IT 

 










Legend :    VFR   Marginal VFR   IFR   Intensive IFR   Very Intensive IFR
Visi :
Ceiling :
>= 8 km
>= 3000ft
5 to 8 km
1000 to 3000 ft
1500m to 5 km
500 to 1000 ft
800 to 1500m
200 to 500 ft
< 800m
< 200 ft
Symbols :   Thunderstorms  Fog  Heavy snow  Heavy precipitations  Wind > 20 kt
SIGMETs :     Misc.  Thunderstorms  Icing  Turbulence  Mountain Waves  Volcanic Ashes







- Airport Elevation : 190 ft
- IATA code : CAX
- Download approach charts


EGNC - Carlisle

CURRENT METAR :
  • 241650Z 00000KT CAVOK 11/02 Q1033

EXPIRED METARs :
  • 241620Z 00000KT CAVOK 12/02 Q1033
  • 241550Z 03001KT CAVOK 12/03 Q1033
  • 241520Z 34001KT CAVOK 11/03 Q1033
  • 241450Z 34003KT CAVOK 11/03 Q1033

TAF TAF EGNC
Valid from the 24 at 15:00 until the 24 at 18:00 UTC


241400Z 2415/2418 VRB03KT CAVOK
ATIS : +44 1228 574 123
No reported NOTAMs for that airfield.
1 SIGMET reported for the London FIR (EGTT) :
 
Severe turbulence
EGTT SIGMET 04 VALID 241500/241900 EGRR
EGTT LONDON FIR SEV TURB FCST S OF N5200 AND E OF W00400 FL180/320 MOV W 15KT NC=



MET'MAP, your aeronautical weather chart ! - Copyright ORBIFLY December 2007 - Disclaimer

ORBIFLY MET'MAP TEAM :

Programming & Development : Alexandra Zaïnal
Concept & Development : Baudouin d'Aumeries
Co-Development & Prog : Marc-Olivier Méhu
Technical & hardware support : Manuel Goepfert

Contact : metmap@orbifly.com




SOURCES & CREDITS :

   NOAA